Time;durP1;ratioP1;P1;durP2;ratioP2;P2;SDS_P1;SDS_P2;PMS_P1;PMS_P2;Temp;Humidity;BMP_temperature;BMP_pressure;BME280_temperature;BME280_humidity;BME280_pressure;Samples;Min_cycle;Max_cycle;Signal;HPM_P1;HPM_P2
2023/01/17 00:01:39;;;;;;;15.80;9.00;;;3.30;99.90;;;;;;5115950;28;20260;-62
2023/01/17 00:09:51;;;;;;;16.43;9.60;;;2.90;99.90;;;;;;5116382;28;20179;-63
2023/01/17 00:12:29;;;;;;;15.27;9.60;;;2.90;99.90;;;;;;5115976;28;20615;-67
2023/01/17 00:14:56;;;;;;;15.97;9.73;;;2.80;99.90;;;;;;5116040;28;20223;-68
2023/01/17 00:17:23;;;;;;;14.87;9.47;;;2.90;99.90;;;;;;5115795;28;20177;-67
2023/01/17 01:34:52;;;;;;;10.17;7.47;;;3.30;99.90;;;;;;5114415;28;20536;-64
2023/01/17 01:37:17;;;;;;;8.43;6.93;;;3.30;99.90;;;;;;5096091;28;20181;-62
2023/01/17 01:39:43;;;;;;;7.90;6.43;;;3.30;99.90;;;;;;5113774;28;20170;-63
2023/01/17 01:42:14;;;;;;;7.57;6.57;;;3.30;99.90;;;;;;5114104;28;20663;-62
2023/01/17 01:44:48;;;;;;;10.37;7.07;;;3.30;99.90;;;;;;5113774;28;20731;-65
2023/01/17 01:47:25;;;;;;;9.03;6.57;;;3.10;99.90;;;;;;5113792;28;20189;-66
2023/01/17 01:49:51;;;;;;;9.97;7.23;;;3.00;99.90;;;;;;5114147;28;20169;-65
2023/01/17 01:52:20;;;;;;;8.67;6.50;;;3.00;99.90;;;;;;5113972;28;20178;-65
2023/01/17 01:55:00;;;;;;;8.10;6.80;;;3.10;99.90;;;;;;5113888;28;20179;-64
2023/01/17 01:57:30;;;;;;;7.80;6.57;;;3.20;99.90;;;;;;5114004;28;20161;-64
2023/01/17 02:00:04;;;;;;;7.90;6.30;;;3.30;99.90;;;;;;5113367;28;20733;-63
2023/01/17 02:02:30;;;;;;;10.43;6.67;;;3.40;99.90;;;;;;5113714;28;20174;-65
2023/01/17 02:04:58;;;;;;;7.27;6.40;;;3.40;99.90;;;;;;5095316;28;20320;-63
2023/01/17 02:07:40;;;;;;;9.97;7.97;;;3.50;99.90;;;;;;5113473;28;20727;-67
2023/01/17 02:10:05;;;;;;;12.30;8.70;;;3.50;99.90;;;;;;5113801;28;20162;-64
2023/01/17 02:12:31;;;;;;;10.20;7.77;;;3.50;99.90;;;;;;5113764;28;20181;-66
2023/01/17 02:14:58;;;;;;;15.07;9.50;;;3.40;99.90;;;;;;5113577;28;20576;-65
2023/01/17 02:17:55;;;;;;;15.37;9.07;;;3.40;99.90;;;;;;5113544;28;20221;-66
2023/01/17 02:20:40;;;;;;;14.83;9.20;;;3.40;99.90;;;;;;5078716;28;20185;-62
2023/01/17 02:23:27;;;;;;;14.83;9.17;;;3.50;99.90;;;;;;5113286;28;20193;-61
2023/01/17 02:26:30;;;;;;;13.97;9.70;;;3.40;99.90;;;;;;5107867;28;20623;-63
2023/01/17 02:29:23;;;;;;;13.47;9.20;;;3.40;99.90;;;;;;5128095;28;20172;-63
2023/01/17 02:31:53;;;;;;;14.87;10.03;;;3.40;99.90;;;;;;5113539;28;20170;-64
2023/01/17 02:34:30;;;;;;;14.43;9.77;;;3.40;99.90;;;;;;5113590;28;20178;-62
2023/01/17 02:37:05;;;;;;;13.87;8.63;;;3.30;99.90;;;;;;5116567;28;20150;-62
2023/01/17 02:39:47;;;;;;;15.87;9.50;;;3.30;99.90;;;;;;5112705;28;20651;-63
2023/01/17 02:42:18;;;;;;;12.20;8.23;;;3.30;99.90;;;;;;5113139;28;20634;-63
2023/01/17 02:44:44;;;;;;;14.73;9.17;;;3.30;99.90;;;;;;5094483;28;20229;-62
2023/01/17 02:47:25;;;;;;;13.90;9.10;;;3.30;99.90;;;;;;5113040;28;20168;-63
2023/01/17 02:50:01;;;;;;;12.53;8.50;;;3.20;99.90;;;;;;5113074;28;20188;-62
2023/01/17 02:53:09;;;;;;;12.57;8.67;;;3.20;99.90;;;;;;5113184;28;20214;-61
2023/01/17 02:55:47;;;;;;;13.93;8.87;;;3.30;99.90;;;;;;5112830;28;20209;-61
2023/01/17 02:58:46;;;;;;;13.67;9.07;;;3.10;99.90;;;;;;5112890;28;20162;-64
2023/01/17 03:01:18;;;;;;;14.67;9.37;;;3.10;99.90;;;;;;5112380;28;20177;-62
2023/01/17 03:03:52;;;;;;;12.20;8.50;;;3.10;99.90;;;;;;5112545;28;20285;-63
2023/01/17 03:06:35;;;;;;;14.07;9.53;;;3.20;99.90;;;;;;5112664;28;20180;-63
2023/01/17 03:09:02;;;;;;;12.80;8.17;;;3.20;99.90;;;;;;5112730;28;20511;-63
2023/01/17 03:11:28;;;;;;;14.60;8.97;;;3.20;99.90;;;;;;5112767;28;20174;-63
2023/01/17 03:13:58;;;;;;;12.73;8.53;;;3.10;99.90;;;;;;5112539;28;20212;-66
2023/01/17 03:16:26;;;;;;;12.43;8.73;;;3.20;99.90;;;;;;5112573;28;20176;-67
2023/01/17 03:18:55;;;;;;;13.57;9.33;;;3.20;99.90;;;;;;5112169;28;20180;-67
2023/01/17 03:21:22;;;;;;;12.93;8.30;;;3.20;99.90;;;;;;5112079;28;20170;-66
2023/01/17 03:23:48;;;;;;;14.87;8.73;;;3.20;99.90;;;;;;5112479;28;20701;-63
2023/01/17 03:26:14;;;;;;;12.90;8.80;;;3.10;99.90;;;;;;5112282;28;20292;-65
2023/01/17 03:28:40;;;;;;;14.40;8.73;;;3.20;99.90;;;;;;5112615;28;20182;-63
2023/01/17 03:31:06;;;;;;;12.90;8.53;;;3.20;99.90;;;;;;5113667;28;20526;-66
2023/01/17 03:33:32;;;;;;;12.70;8.73;;;3.20;99.90;;;;;;5116605;28;20169;-67
2023/01/17 03:35:58;;;;;;;13.83;8.20;;;3.20;99.90;;;;;;5116841;28;20177;-66
2023/01/17 03:38:28;;;;;;;14.23;8.63;;;3.20;99.90;;;;;;5116426;28;20184;-67
2023/01/17 03:40:54;;;;;;;12.40;8.40;;;3.10;99.90;;;;;;5116025;28;20217;-65
2023/01/17 03:43:20;;;;;;;13.50;8.70;;;3.00;99.90;;;;;;5116364;28;20311;-66
2023/01/17 03:45:50;;;;;;;12.80;8.47;;;3.00;99.90;;;;;;5116133;28;20704;-67
2023/01/17 03:48:17;;;;;;;10.77;7.60;;;3.10;99.90;;;;;;5116589;28;20168;-66
2023/01/17 03:50:43;;;;;;;12.37;8.63;;;3.10;99.90;;;;;;5116494;28;20177;-64
2023/01/17 03:53:08;;;;;;;15.80;8.90;;;3.00;99.90;;;;;;5116322;28;20633;-67
2023/01/17 03:55:34;;;;;;;13.10;8.60;;;3.10;99.90;;;;;;5116656;28;20174;-65
2023/01/17 03:58:00;;;;;;;11.30;8.03;;;3.10;99.90;;;;;;5116438;28;20567;-66
2023/01/17 04:00:25;;;;;;;11.03;8.23;;;3.10;99.90;;;;;;5115289;28;20200;-65
2023/01/17 04:02:51;;;;;;;12.40;8.60;;;3.20;99.90;;;;;;5116014;28;20192;-67
2023/01/17 04:05:17;;;;;;;11.97;8.13;;;3.10;99.90;;;;;;5116130;28;20315;-69
2023/01/17 04:07:43;;;;;;;11.00;7.97;;;3.20;99.90;;;;;;5116272;28;20709;-62
2023/01/17 04:10:09;;;;;;;11.50;8.70;;;3.20;99.90;;;;;;5116082;28;20527;-62
2023/01/17 04:12:34;;;;;;;13.93;8.87;;;3.10;99.90;;;;;;5116134;28;20172;-62
2023/01/17 04:15:00;;;;;;;13.70;8.50;;;3.10;99.90;;;;;;5098189;28;20280;-62
2023/01/17 04:17:26;;;;;;;11.57;8.00;;;3.10;99.90;;;;;;5116285;28;20169;-61
2023/01/17 04:19:52;;;;;;;12.50;8.37;;;3.10;99.90;;;;;;5115687;28;20676;-62
2023/01/17 04:22:18;;;;;;;12.27;8.77;;;3.00;99.90;;;;;;5116906;28;20185;-64
2023/01/17 04:24:44;;;;;;;14.07;8.17;;;3.00;99.90;;;;;;5119818;28;20239;-64
2023/01/17 04:27:13;;;;;;;12.33;8.00;;;3.10;99.90;;;;;;5115721;28;20192;-64
2023/01/17 04:29:39;;;;;;;13.57;8.90;;;3.00;99.90;;;;;;5115792;28;20174;-65
2023/01/17 04:32:04;;;;;;;14.70;8.97;;;2.90;99.90;;;;;;5115648;28;20176;-61
2023/01/17 04:34:30;;;;;;;11.03;7.63;;;2.80;99.90;;;;;;5115923;28;20173;-62
2023/01/17 04:36:56;;;;;;;12.20;8.23;;;2.80;99.90;;;;;;5117513;28;20200;-62
2023/01/17 04:39:22;;;;;;;17.03;8.53;;;2.80;99.90;;;;;;5118071;28;20170;-67
2023/01/17 04:41:47;;;;;;;14.20;8.63;;;2.80;99.90;;;;;;5115637;28;20193;-62
2023/01/17 04:44:13;;;;;;;16.30;9.37;;;2.90;99.90;;;;;;5114287;28;20203;-61
2023/01/17 04:46:39;;;;;;;15.60;9.50;;;2.90;99.90;;;;;;5115006;28;20684;-62
2023/01/17 04:49:05;;;;;;;14.10;8.47;;;2.90;99.90;;;;;;5115486;28;20635;-61
2023/01/17 04:51:30;;;;;;;13.27;8.70;;;2.80;99.90;;;;;;5115332;28;20196;-68
2023/01/17 04:53:56;;;;;;;14.87;8.90;;;2.80;99.90;;;;;;5115355;28;20209;-65
2023/01/17 04:56:22;;;;;;;16.60;9.07;;;2.90;99.90;;;;;;5115559;28;20174;-66
2023/01/17 04:58:48;;;;;;;12.00;8.20;;;2.80;99.90;;;;;;5114670;28;20697;-64
2023/01/17 05:01:14;;;;;;;15.87;8.83;;;2.80;99.90;;;;;;5114303;28;20224;-64
2023/01/17 05:03:39;;;;;;;12.07;8.37;;;2.90;99.90;;;;;;5114690;28;20209;-64
2023/01/17 05:06:05;;;;;;;12.60;7.23;;;2.80;99.90;;;;;;5114815;28;20249;-65
2023/01/17 05:08:31;;;;;;;13.33;8.57;;;2.80;99.90;;;;;;5096799;28;20177;-65
2023/01/17 05:10:56;;;;;;;12.80;8.47;;;2.80;99.90;;;;;;5114843;28;20271;-66
2023/01/17 05:13:22;;;;;;;14.53;8.53;;;2.80;99.90;;;;;;5114616;28;20190;-65
2023/01/17 05:15:49;;;;;;;15.90;9.33;;;2.90;99.90;;;;;;5114841;28;20179;-64
2023/01/17 05:18:16;;;;;;;13.93;9.13;;;2.80;99.90;;;;;;5114699;28;20173;-62
2023/01/17 05:20:42;;;;;;;14.80;9.57;;;2.90;99.90;;;;;;5089922;28;20175;-65
2023/01/17 05:23:08;;;;;;;15.90;9.43;;;2.90;99.90;;;;;;5103817;27;20207;-65
2023/01/17 05:25:35;;;;;;;14.03;9.47;;;2.90;99.90;;;;;;5105576;28;20250;-65
2023/01/17 05:28:01;;;;;;;14.57;8.70;;;2.80;99.90;;;;;;5114441;28;20162;-65
2023/01/17 05:30:29;;;;;;;12.97;8.87;;;2.80;99.90;;;;;;5114502;28;20181;-64
2023/01/17 05:32:56;;;;;;;14.63;8.83;;;2.90;99.90;;;;;;5114362;28;20165;-65
2023/01/17 05:35:25;;;;;;;14.23;9.17;;;2.90;99.90;;;;;;5114318;28;20179;-65
2023/01/17 05:37:51;;;;;;;16.20;9.97;;;2.90;99.90;;;;;;5114694;28;20175;-62
2023/01/17 05:40:19;;;;;;;11.10;8.43;;;3.00;99.90;;;;;;5113712;28;20171;-62
2023/01/17 05:42:46;;;;;;;14.43;9.37;;;2.90;99.90;;;;;;5114018;28;20535;-62
2023/01/17 05:45:15;;;;;;;16.00;8.90;;;3.00;99.90;;;;;;5113928;28;20221;-63
2023/01/17 05:47:42;;;;;;;15.80;9.03;;;2.90;99.90;;;;;;5113695;28;20173;-63
2023/01/17 05:50:10;;;;;;;15.23;9.43;;;2.90;99.90;;;;;;5114206;28;20585;-67
2023/01/17 05:52:36;;;;;;;14.83;9.17;;;3.00;99.90;;;;;;5114131;28;20166;-63
2023/01/17 05:55:02;;;;;;;17.03;10.03;;;3.00;99.90;;;;;;5113757;28;20185;-62
2023/01/17 05:57:28;;;;;;;15.70;10.50;;;3.00;99.90;;;;;;5113922;28;20212;-62
2023/01/17 05:59:54;;;;;;;14.57;10.10;;;2.90;99.90;;;;;;5113286;28;20178;-63
2023/01/17 06:02:19;;;;;;;17.13;10.40;;;3.00;99.90;;;;;;5113833;28;20468;-65
2023/01/17 06:04:45;;;;;;;21.90;10.60;;;2.90;99.90;;;;;;5113681;28;20560;-62
2023/01/17 06:07:11;;;;;;;18.40;10.47;;;2.90;99.90;;;;;;5113437;28;20250;-62
2023/01/17 06:09:36;;;;;;;14.63;9.47;;;2.90;99.90;;;;;;5113960;28;20277;-64
2023/01/17 06:12:02;;;;;;;18.47;11.07;;;2.90;99.90;;;;;;5113980;28;20640;-64
2023/01/17 06:14:28;;;;;;;17.23;9.90;;;2.90;99.90;;;;;;5114029;28;20627;-64
2023/01/17 06:16:54;;;;;;;20.33;10.37;;;2.80;99.90;;;;;;5113971;28;20510;-65
2023/01/17 06:19:20;;;;;;;24.13;12.17;;;2.80;99.90;;;;;;5115968;28;20189;-62
2023/01/17 06:21:45;;;;;;;18.17;10.27;;;2.70;99.90;;;;;;5115970;28;20174;-62
2023/01/17 06:24:11;;;;;;;16.43;10.10;;;2.70;99.90;;;;;;5097872;28;20662;-62
2023/01/17 06:26:37;;;;;;;17.10;9.67;;;2.70;99.90;;;;;;5113558;28;20173;-63
2023/01/17 06:29:03;;;;;;;16.73;9.93;;;2.60;99.90;;;;;;5113592;28;20264;-62
2023/01/17 06:31:28;;;;;;;19.57;10.50;;;2.60;99.90;;;;;;5113239;28;20207;-63
2023/01/17 06:33:54;;;;;;;19.13;10.87;;;2.50;99.90;;;;;;5113413;28;20683;-62
2023/01/17 06:36:20;;;;;;;15.87;9.80;;;2.60;99.90;;;;;;5113168;28;20536;-65
2023/01/17 06:38:50;;;;;;;15.97;10.17;;;2.50;99.90;;;;;;5113208;28;20237;-63
2023/01/17 06:41:16;;;;;;;16.57;9.97;;;2.50;99.90;;;;;;5113879;28;20209;-64
2023/01/17 06:43:41;;;;;;;16.10;9.57;;;2.40;99.90;;;;;;5113248;28;20193;-62
2023/01/17 06:46:07;;;;;;;12.80;9.20;;;2.30;99.90;;;;;;5112792;28;20393;-62
2023/01/17 06:48:33;;;;;;;17.50;10.30;;;2.40;99.90;;;;;;5113139;28;20173;-63
2023/01/17 06:50:59;;;;;;;18.30;10.83;;;2.40;99.90;;;;;;5111001;28;20263;-64
2023/01/17 06:53:24;;;;;;;17.50;9.70;;;2.30;99.90;;;;;;5113289;28;20181;-64
2023/01/17 06:55:51;;;;;;;16.87;9.97;;;2.50;99.90;;;;;;5113059;28;20202;-63
2023/01/17 06:58:17;;;;;;;14.20;9.47;;;2.50;99.90;;;;;;5094670;28;20633;-63
2023/01/17 07:00:43;;;;;;;15.27;9.17;;;2.30;99.90;;;;;;5112490;28;20174;-62
2023/01/17 07:03:18;;;;;;;13.53;8.83;;;2.30;99.90;;;;;;5109763;28;20676;-61
2023/01/17 07:05:43;;;;;;;13.00;9.10;;;2.30;99.90;;;;;;5112037;28;20677;-62
2023/01/17 07:08:09;;;;;;;28.97;12.87;;;2.50;99.90;;;;;;5112643;28;20382;-61
2023/01/17 07:10:35;;;;;;;17.40;10.20;;;2.50;99.90;;;;;;5112501;28;20181;-61
2023/01/17 07:13:01;;;;;;;16.90;9.30;;;2.50;99.90;;;;;;5112213;28;20183;-62
2023/01/17 07:15:26;;;;;;;15.53;10.03;;;2.60;99.90;;;;;;5112328;28;20172;-61
2023/01/17 07:17:52;;;;;;;16.50;9.50;;;2.70;99.90;;;;;;5112638;28;20183;-62
2023/01/17 07:20:18;;;;;;;16.00;9.43;;;2.70;99.90;;;;;;5112071;28;20268;-62
2023/01/17 07:22:44;;;;;;;16.30;8.93;;;2.80;99.90;;;;;;5112447;28;20583;-61
2023/01/17 07:25:10;;;;;;;11.80;7.80;;;2.80;99.90;;;;;;5112255;28;20292;-61
2023/01/17 07:27:36;;;;;;;11.80;8.00;;;2.90;99.90;;;;;;5094400;28;20270;-62
2023/01/17 07:30:01;;;;;;;11.77;7.33;;;3.10;99.90;;;;;;5112384;28;20593;-63
2023/01/17 07:32:28;;;;;;;13.17;9.00;;;3.10;99.90;;;;;;5093923;28;20205;-62
2023/01/17 07:34:56;;;;;;;12.73;7.80;;;3.10;99.90;;;;;;5112135;28;20258;-62
2023/01/17 07:37:22;;;;;;;16.10;8.07;;;3.10;99.90;;;;;;5112641;28;20181;-62
2023/01/17 07:39:48;;;;;;;13.57;8.80;;;3.10;99.90;;;;;;5112078;28;20190;-64
2023/01/17 07:42:14;;;;;;;14.10;9.00;;;3.10;99.90;;;;;;5111782;28;20214;-62
2023/01/17 07:44:42;;;;;;;15.57;9.27;;;3.10;99.90;;;;;;5111894;28;20197;-61
2023/01/17 07:47:08;;;;;;;18.03;8.50;;;3.20;99.90;;;;;;5112177;28;20162;-62
2023/01/17 07:49:34;;;;;;;11.50;8.10;;;3.20;99.90;;;;;;5112142;28;20603;-63
2023/01/17 07:52:00;;;;;;;11.53;8.17;;;3.10;99.90;;;;;;5112220;28;20272;-64
2023/01/17 07:54:26;;;;;;;12.83;8.67;;;3.00;99.90;;;;;;5111901;28;20201;-63
2023/01/17 07:56:51;;;;;;;12.87;9.03;;;3.00;99.90;;;;;;5112259;28;20188;-65
2023/01/17 07:59:17;;;;;;;15.50;9.77;;;3.10;99.90;;;;;;5112185;28;20181;-63
2023/01/17 08:01:43;;;;;;;11.27;8.33;;;3.10;99.90;;;;;;5111729;28;20604;-61
2023/01/17 08:04:10;;;;;;;11.80;8.70;;;3.20;99.90;;;;;;5111527;28;20234;-62
2023/01/17 08:06:38;;;;;;;13.47;9.37;;;3.30;99.90;;;;;;5112337;28;20178;-64
2023/01/17 08:09:04;;;;;;;14.73;9.30;;;3.30;99.90;;;;;;5112235;28;20202;-66
2023/01/17 08:11:29;;;;;;;13.73;8.57;;;3.30;99.90;;;;;;5111934;28;20205;-67
2023/01/17 08:13:59;;;;;;;12.93;9.00;;;3.40;99.90;;;;;;5111927;28;20180;-64
2023/01/17 08:16:25;;;;;;;11.20;8.13;;;3.50;99.90;;;;;;5111002;28;20187;-69
2023/01/17 08:18:52;;;;;;;10.97;7.27;;;3.50;99.90;;;;;;5116520;28;20184;-66
2023/01/17 08:21:18;;;;;;;13.80;8.43;;;3.60;99.90;;;;;;5116026;28;20181;-65
2023/01/17 08:23:48;;;;;;;13.73;8.70;;;3.60;99.90;;;;;;5115221;28;20233;-63
2023/01/17 08:26:20;;;;;;;15.17;8.67;;;3.70;99.90;;;;;;5115596;28;20217;-65
2023/01/17 08:28:59;;;;;;;15.47;8.73;;;3.80;99.90;;;;;;5115930;28;20228;-67
2023/01/17 08:31:27;;;;;;;16.77;8.60;;;3.90;99.90;;;;;;5115438;28;20166;-65
2023/01/17 08:33:52;;;;;;;12.97;7.90;;;4.00;99.90;;;;;;5115391;28;20291;-63
2023/01/17 08:36:18;;;;;;;9.83;6.93;;;4.10;99.90;;;;;;5115085;28;20292;-64
2023/01/17 08:38:44;;;;;;;9.93;6.93;;;4.00;99.90;;;;;;5115974;28;20182;-64
2023/01/17 08:41:10;;;;;;;10.73;7.93;;;4.00;99.90;;;;;;5115795;28;20617;-64
2023/01/17 08:43:35;;;;;;;11.67;8.07;;;4.10;99.90;;;;;;5116614;28;20193;-63
2023/01/17 08:46:01;;;;;;;8.67;7.00;;;4.20;99.90;;;;;;5115439;28;20217;-66
2023/01/17 08:48:27;;;;;;;9.10;7.30;;;4.30;99.90;;;;;;5115461;28;20303;-63
2023/01/17 08:50:53;;;;;;;12.97;8.80;;;4.30;99.90;;;;;;5114506;28;20256;-65
2023/01/17 08:53:20;;;;;;;31.93;14.57;;;4.30;99.90;;;;;;5115108;28;20176;-64
2023/01/17 08:55:46;;;;;;;13.13;9.10;;;4.20;99.90;;;;;;5114910;28;20198;-66
2023/01/17 08:58:12;;;;;;;11.70;8.30;;;4.20;99.90;;;;;;5115160;28;20223;-67
2023/01/17 09:00:38;;;;;;;13.53;9.20;;;4.10;99.90;;;;;;5114398;28;20188;-66
2023/01/17 09:03:09;;;;;;;11.00;8.17;;;4.20;99.90;;;;;;5114427;28;20248;-63
2023/01/17 09:05:34;;;;;;;12.17;8.33;;;4.20;99.90;;;;;;5114898;28;20172;-65
2023/01/17 09:08:00;;;;;;;10.10;8.20;;;4.10;99.90;;;;;;5114679;28;20580;-67
2023/01/17 09:10:26;;;;;;;15.67;9.40;;;4.20;99.90;;;;;;5114700;28;20653;-62
2023/01/17 09:12:52;;;;;;;12.07;8.73;;;4.20;99.90;;;;;;5114473;28;20631;-65
2023/01/17 09:15:19;;;;;;;11.00;7.73;;;4.30;99.90;;;;;;5114475;28;20251;-63
2023/01/17 09:17:46;;;;;;;11.87;8.37;;;4.40;99.90;;;;;;5113942;28;20197;-64
2023/01/17 09:20:12;;;;;;;10.43;7.87;;;4.30;99.90;;;;;;5114162;28;20173;-64
2023/01/17 09:22:38;;;;;;;11.30;7.00;;;4.30;99.90;;;;;;5112328;28;20204;-63
2023/01/17 09:25:05;;;;;;;9.97;8.10;;;4.30;99.90;;;;;;5114173;28;20716;-62
2023/01/17 09:27:31;;;;;;;11.30;8.23;;;4.20;99.90;;;;;;5095741;28;20181;-62
2023/01/17 09:29:57;;;;;;;9.37;7.20;;;4.10;99.90;;;;;;5095493;28;20524;-64
2023/01/17 09:32:23;;;;;;;13.17;7.70;;;4.10;99.90;;;;;;5114153;28;20231;-63
2023/01/17 09:34:48;;;;;;;12.43;7.33;;;4.10;99.90;;;;;;5114474;28;20252;-62
2023/01/17 09:37:14;;;;;;;8.87;6.70;;;4.10;99.90;;;;;;5114067;28;20185;-62
2023/01/17 09:39:40;;;;;;;7.77;6.37;;;4.10;99.90;;;;;;5114215;28;20185;-63
2023/01/17 09:42:32;;;;;;;7.97;6.40;;;4.20;99.90;;;;;;5113533;28;20581;-63
2023/01/17 09:44:58;;;;;;;8.53;6.37;;;4.10;99.90;;;;;;5113247;28;20739;-61
2023/01/17 09:47:30;;;;;;;10.67;7.50;;;4.20;99.90;;;;;;5113749;28;20246;-63
2023/01/17 09:50:19;;;;;;;10.40;7.17;;;4.30;99.90;;;;;;5114127;28;20194;-63
2023/01/17 09:52:44;;;;;;;11.00;7.00;;;4.30;99.90;;;;;;5113092;28;20665;-66
2023/01/17 09:55:17;;;;;;;8.43;6.40;;;4.40;99.90;;;;;;5113753;28;20177;-66
2023/01/17 09:57:51;;;;;;;10.33;7.00;;;4.50;99.90;;;;;;5113772;28;20261;-65
2023/01/17 10:00:26;;;;;;;7.70;6.37;;;4.60;99.90;;;;;;5110893;28;20160;-64
2023/01/17 10:03:04;;;;;;;9.23;6.40;;;4.70;99.90;;;;;;5112128;28;20251;-67
2023/01/17 10:05:51;;;;;;;7.20;5.57;;;4.70;99.90;;;;;;5095078;28;20184;-66
2023/01/17 10:08:32;;;;;;;7.80;6.13;;;4.90;99.90;;;;;;5113255;28;20261;-65
2023/01/17 10:11:39;;;;;;;5.87;5.23;;;5.00;99.90;;;;;;5112743;28;20177;-65
2023/01/17 10:14:16;;;;;;;5.43;4.73;;;5.10;99.90;;;;;;5063221;28;20184;-62
2023/01/17 10:17:12;;;;;;;6.93;5.20;;;5.00;99.90;;;;;;5113370;28;20218;-66
2023/01/17 10:19:43;;;;;;;4.90;4.40;;;5.10;99.90;;;;;;5113634;28;20250;-64
2023/01/17 10:22:38;;;;;;;6.30;4.20;;;5.10;99.90;;;;;;5112774;28;20174;-65
2023/01/17 10:25:26;;;;;;;5.63;4.70;;;5.10;99.90;;;;;;5112876;28;20197;-65
2023/01/17 10:27:59;;;;;;;3.97;3.60;;;5.20;99.90;;;;;;5113119;28;20651;-64
2023/01/17 10:30:41;;;;;;;4.20;3.80;;;5.20;99.90;;;;;;5113160;28;20219;-63
2023/01/17 10:33:42;;;;;;;3.90;3.50;;;5.30;99.90;;;;;;5113138;28;20219;-65
2023/01/17 10:36:20;;;;;;;3.53;3.23;;;5.40;99.90;;;;;;5094755;28;20180;-62
2023/01/17 10:38:53;;;;;;;2.80;2.60;;;5.40;99.90;;;;;;5113032;28;20207;-64
2023/01/17 10:41:38;;;;;;;3.03;2.83;;;5.40;99.90;;;;;;5112227;28;20622;-64
2023/01/17 10:44:10;;;;;;;3.40;3.10;;;5.50;99.90;;;;;;5112863;28;20200;-62
2023/01/17 10:46:51;;;;;;;3.63;3.33;;;5.60;99.90;;;;;;5114137;28;20226;-65
2023/01/17 10:49:21;;;;;;;4.00;3.33;;;5.60;99.90;;;;;;5113168;28;20520;-64
2023/01/17 10:52:07;;;;;;;3.73;3.43;;;5.50;99.90;;;;;;5112781;28;20167;-63
2023/01/17 10:55:02;;;;;;;3.13;2.87;;;5.50;99.90;;;;;;5112416;28;20603;-67
2023/01/17 10:57:39;;;;;;;3.30;3.10;;;5.40;99.90;;;;;;5094951;28;20174;-64
2023/01/17 11:00:18;;;;;;;3.90;3.10;;;5.30;99.90;;;;;;5112718;28;20151;-64
2023/01/17 11:02:48;;;;;;;3.40;3.10;;;5.30;99.90;;;;;;5113164;28;20173;-65
2023/01/17 11:05:24;;;;;;;3.20;2.90;;;5.20;99.90;;;;;;5112523;28;20612;-64
2023/01/17 11:08:04;;;;;;;2.97;2.67;;;5.40;99.90;;;;;;5094364;28;20258;-62
2023/01/17 11:10:35;;;;;;;3.00;2.80;;;5.40;99.90;;;;;;5112490;28;20237;-63
2023/01/17 11:13:04;;;;;;;2.80;2.60;;;5.40;99.90;;;;;;5112241;28;20292;-63
2023/01/17 11:15:33;;;;;;;2.90;2.70;;;5.40;99.90;;;;;;5111929;28;20537;-63
2023/01/17 11:18:13;;;;;;;2.90;2.70;;;5.50;99.90;;;;;;5112115;28;20193;-66
2023/01/17 11:20:39;;;;;;;2.57;2.43;;;5.50;99.90;;;;;;5112207;28;20628;-61
2023/01/17 11:23:22;;;;;;;3.47;3.17;;;5.40;99.90;;;;;;5111982;28;20184;-63
2023/01/17 11:25:56;;;;;;;2.90;2.77;;;5.40;99.90;;;;;;5111691;28;20679;-66
2023/01/17 11:28:29;;;;;;;2.40;2.20;;;5.40;99.90;;;;;;5111969;28;20167;-64
2023/01/17 11:31:06;;;;;;;2.63;2.43;;;5.40;99.90;;;;;;5112558;28;20180;-65
2023/01/17 11:33:47;;;;;;;2.90;2.70;;;5.40;99.90;;;;;;5112390;28;20194;-64
2023/01/17 11:36:20;;;;;;;3.70;3.30;;;5.40;99.90;;;;;;5113809;28;20238;-64
2023/01/17 11:38:55;;;;;;;3.43;3.13;;;5.40;99.90;;;;;;5112242;28;20271;-65
2023/01/17 11:41:22;;;;;;;3.07;2.87;;;5.30;99.90;;;;;;5112570;28;20513;-64
2023/01/17 11:43:51;;;;;;;2.50;2.40;;;5.30;99.90;;;;;;5111912;28;20793;-63
2023/01/17 11:46:19;;;;;;;3.30;3.00;;;5.30;99.90;;;;;;5111259;28;20728;-66
2023/01/17 11:48:59;;;;;;;3.27;2.67;;;5.40;99.90;;;;;;5111867;28;20652;-64
2023/01/17 11:51:31;;;;;;;3.47;3.27;;;5.40;99.90;;;;;;5112106;28;20159;-64
2023/01/17 11:54:27;;;;;;;2.83;2.63;;;5.40;99.90;;;;;;5116498;28;20174;-63
2023/01/17 11:56:58;;;;;;;3.33;3.13;;;5.40;99.90;;;;;;5116318;28;20163;-62
2023/01/17 11:59:26;;;;;;;3.53;3.30;;;5.40;99.90;;;;;;5116026;28;20174;-64
2023/01/17 12:01:54;;;;;;;3.03;2.73;;;5.30;99.90;;;;;;5115967;28;20549;-66
2023/01/17 12:04:41;;;;;;;4.47;3.40;;;5.30;99.90;;;;;;5115725;28;20537;-66
2023/01/17 12:07:12;;;;;;;3.67;3.37;;;5.40;99.90;;;;;;5115714;28;20163;-64
2023/01/17 12:09:52;;;;;;;3.20;3.00;;;5.40;99.90;;;;;;5115881;28;20276;-65
2023/01/17 12:15:37;;;;;;;3.90;3.60;;;5.50;99.90;;;;;;5116049;28;20307;-63
2023/01/17 12:18:23;;;;;;;4.10;3.70;;;5.50;99.90;;;;;;5068594;28;20536;-63
2023/01/17 12:21:19;;;;;;;3.93;3.63;;;5.50;99.90;;;;;;5097563;28;20181;-64
2023/01/17 12:24:03;;;;;;;4.10;3.70;;;5.60;99.90;;;;;;5086370;28;20226;-64
2023/01/17 12:26:35;;;;;;;4.30;3.93;;;5.50;99.90;;;;;;5115168;28;20178;-65
2023/01/17 12:29:16;;;;;;;4.70;4.20;;;5.50;99.90;;;;;;5115717;28;20625;-65
2023/01/17 12:31:59;;;;;;;4.27;3.87;;;5.70;99.90;;;;;;5115519;28;20159;-63
2023/01/17 12:34:31;;;;;;;4.77;4.20;;;5.60;99.90;;;;;;5115192;28;20172;-64
2023/01/17 12:37:28;;;;;;;4.30;3.87;;;5.70;99.90;;;;;;5115522;28;20525;-66
2023/01/17 12:40:05;;;;;;;5.07;4.30;;;5.70;99.90;;;;;;5113897;28;20202;-65
2023/01/17 12:42:36;;;;;;;4.07;3.73;;;5.70;99.90;;;;;;5115420;28;20162;-65
2023/01/17 12:45:26;;;;;;;7.23;5.47;;;5.60;99.90;;;;;;5114916;28;20236;-63
2023/01/17 12:48:00;;;;;;;5.20;4.70;;;5.60;99.90;;;;;;5101882;28;20186;-63
2023/01/17 12:51:01;;;;;;;4.83;4.27;;;5.50;99.90;;;;;;5097978;28;20770;-63
2023/01/17 12:53:46;;;;;;;5.20;4.63;;;5.60;99.90;;;;;;5061819;28;20272;-61
2023/01/17 12:56:27;;;;;;;5.10;4.50;;;5.60;99.90;;;;;;5115291;28;20160;-65
2023/01/17 12:59:14;;;;;;;4.97;4.20;;;5.40;99.90;;;;;;5115011;28;20221;-63
2023/01/17 13:01:56;;;;;;;4.87;4.37;;;5.50;99.90;;;;;;5115382;28;20254;-63
2023/01/17 13:04:28;;;;;;;4.97;4.47;;;5.50;99.90;;;;;;5113623;28;20205;-63
2023/01/17 13:06:59;;;;;;;5.43;4.93;;;5.40;99.90;;;;;;5114778;28;20177;-64
2023/01/17 13:09:33;;;;;;;7.13;5.20;;;5.50;99.90;;;;;;5114874;28;20209;-65
2023/01/17 13:12:09;;;;;;;7.10;5.10;;;5.60;99.90;;;;;;5114669;28;20172;-66
2023/01/17 13:14:35;;;;;;;8.33;5.47;;;5.60;99.90;;;;;;5096306;28;20183;-63
2023/01/17 13:17:43;;;;;;;6.37;5.30;;;5.60;99.90;;;;;;5114691;28;20547;-63
2023/01/17 13:20:30;;;;;;;5.07;4.60;;;5.60;99.90;;;;;;5114268;28;20198;-64
2023/01/17 13:23:06;;;;;;;6.03;5.40;;;5.50;99.90;;;;;;5115189;28;20163;-64
2023/01/17 13:25:35;;;;;;;7.90;5.90;;;5.50;99.90;;;;;;5111443;28;20193;-64
2023/01/17 13:28:21;;;;;;;6.27;5.67;;;5.50;99.90;;;;;;5096340;28;20516;-64
2023/01/17 13:31:19;;;;;;;6.67;5.50;;;5.50;99.90;;;;;;5113916;28;20183;-64
2023/01/17 13:34:00;;;;;;;15.27;6.37;;;5.40;99.90;;;;;;5114297;28;20191;-65
2023/01/17 13:36:42;;;;;;;10.37;6.23;;;5.40;99.90;;;;;;5114378;28;20565;-65
2023/01/17 13:39:31;;;;;;;8.13;4.50;;;5.30;99.90;;;;;;5114391;28;20185;-65
2023/01/17 13:42:21;;;;;;;7.93;4.97;;;5.30;99.90;;;;;;5114416;28;20207;-67
2023/01/17 13:44:47;;;;;;;8.37;4.73;;;5.40;99.90;;;;;;5113559;28;20740;-65
2023/01/17 13:47:16;;;;;;;4.93;3.57;;;5.40;99.90;;;;;;5113848;28;20174;-65
2023/01/17 13:49:55;;;;;;;23.50;13.37;;;5.30;99.90;;;;;;5114691;28;20168;-63
2023/01/17 13:52:22;;;;;;;4.93;4.23;;;5.30;99.90;;;;;;5116980;28;20233;-67
2023/01/17 13:54:54;;;;;;;4.67;4.13;;;5.20;99.90;;;;;;5114550;28;20641;-64
2023/01/17 13:57:31;;;;;;;4.67;3.90;;;5.10;99.90;;;;;;5114277;28;20213;-67
2023/01/17 14:00:15;;;;;;;4.40;4.10;;;5.10;99.90;;;;;;5113572;28;20165;-63
2023/01/17 14:02:42;;;;;;;9.47;6.20;;;4.90;99.90;;;;;;5113634;28;20265;-64
2023/01/17 14:05:26;;;;;;;7.77;5.80;;;4.90;99.90;;;;;;5113536;28;20210;-66
2023/01/17 14:08:03;;;;;;;5.07;4.17;;;5.00;99.90;;;;;;5113740;28;20607;-67
2023/01/17 14:10:41;;;;;;;4.57;3.63;;;5.00;99.90;;;;;;5113597;28;20219;-66
2023/01/17 14:13:38;;;;;;;4.97;4.53;;;5.00;99.90;;;;;;5114565;28;20184;-64
2023/01/17 14:16:28;;;;;;;5.27;4.13;;;4.90;99.90;;;;;;5097560;28;20251;-65
2023/01/17 14:18:54;;;;;;;6.37;4.27;;;5.10;99.90;;;;;;5103259;28;20236;-66
2023/01/17 14:21:34;;;;;;;4.80;4.30;;;5.10;99.90;;;;;;5113358;28;20592;-66
2023/01/17 14:24:02;;;;;;;5.53;4.57;;;5.10;99.90;;;;;;5113267;28;20586;-64
2023/01/17 14:26:31;;;;;;;4.60;4.20;;;5.00;99.90;;;;;;5112905;28;20658;-64
2023/01/17 14:29:18;;;;;;;4.53;4.07;;;5.00;99.90;;;;;;5113185;28;20602;-67
2023/01/17 14:31:45;;;;;;;4.70;4.30;;;4.90;99.90;;;;;;5113128;28;20170;-66
2023/01/17 14:34:12;;;;;;;5.37;4.63;;;4.90;99.90;;;;;;5112885;28;20650;-64
2023/01/17 14:36:38;;;;;;;5.57;4.70;;;4.90;99.90;;;;;;5113336;28;20182;-67
2023/01/17 14:39:20;;;;;;;6.57;4.57;;;4.90;99.90;;;;;;5113113;28;20785;-66